sensor_id;sensor_type;location;lat;lon;timestamp;temperature;humidity
20091;DHT22;10205;49.678;6.560;2023-02-04T00:00:13;13.20;72.60
20091;DHT22;10205;49.678;6.560;2023-02-04T00:02:42;13.20;72.60
20091;DHT22;10205;49.678;6.560;2023-02-04T00:05:11;13.20;72.60
20091;DHT22;10205;49.678;6.560;2023-02-04T00:07:39;13.20;72.60
20091;DHT22;10205;49.678;6.560;2023-02-04T00:10:06;13.20;72.70
20091;DHT22;10205;49.678;6.560;2023-02-04T00:12:34;13.20;72.80
20091;DHT22;10205;49.678;6.560;2023-02-04T00:15:01;13.20;72.90
20091;DHT22;10205;49.678;6.560;2023-02-04T00:17:31;13.20;73.00
20091;DHT22;10205;49.678;6.560;2023-02-04T00:19:58;13.20;73.00
20091;DHT22;10205;49.678;6.560;2023-02-04T00:22:27;13.20;73.00
20091;DHT22;10205;49.678;6.560;2023-02-04T00:24:54;13.20;72.90
20091;DHT22;10205;49.678;6.560;2023-02-04T00:27:21;13.20;73.00
20091;DHT22;10205;49.678;6.560;2023-02-04T00:29:48;13.20;73.10
20091;DHT22;10205;49.678;6.560;2023-02-04T00:32:19;13.20;73.10
20091;DHT22;10205;49.678;6.560;2023-02-04T00:34:46;13.20;73.10
20091;DHT22;10205;49.678;6.560;2023-02-04T00:37:13;13.20;73.10
20091;DHT22;10205;49.678;6.560;2023-02-04T00:39:44;13.20;73.10
20091;DHT22;10205;49.678;6.560;2023-02-04T00:42:11;13.20;73.20
20091;DHT22;10205;49.678;6.560;2023-02-04T00:44:38;13.20;73.20
20091;DHT22;10205;49.678;6.560;2023-02-04T00:47:05;13.20;74.00
20091;DHT22;10205;49.678;6.560;2023-02-04T00:49:33;13.20;73.10
20091;DHT22;10205;49.678;6.560;2023-02-04T00:52:00;13.20;73.10
20091;DHT22;10205;49.678;6.560;2023-02-04T00:54:27;13.20;73.10
20091;DHT22;10205;49.678;6.560;2023-02-04T00:56:56;13.20;73.10
20091;DHT22;10205;49.678;6.560;2023-02-04T00:59:23;13.20;73.20
20091;DHT22;10205;49.678;6.560;2023-02-04T01:01:51;13.20;73.20
20091;DHT22;10205;49.678;6.560;2023-02-04T01:04:18;13.20;73.20
20091;DHT22;10205;49.678;6.560;2023-02-04T01:06:45;13.20;73.20
20091;DHT22;10205;49.678;6.560;2023-02-04T01:09:12;13.20;73.30
20091;DHT22;10205;49.678;6.560;2023-02-04T01:11:39;13.20;73.30
20091;DHT22;10205;49.678;6.560;2023-02-04T01:14:08;13.20;73.30
20091;DHT22;10205;49.678;6.560;2023-02-04T01:16:35;13.20;73.30
20091;DHT22;10205;49.678;6.560;2023-02-04T01:19:02;13.20;74.10
20091;DHT22;10205;49.678;6.560;2023-02-04T01:21:29;13.20;73.30
20091;DHT22;10205;49.678;6.560;2023-02-04T01:23:57;13.20;73.40
20091;DHT22;10205;49.678;6.560;2023-02-04T01:26:24;13.20;73.40
20091;DHT22;10205;49.678;6.560;2023-02-04T01:28:51;13.20;73.30
20091;DHT22;10205;49.678;6.560;2023-02-04T01:31:19;13.20;73.20
20091;DHT22;10205;49.678;6.560;2023-02-04T01:33:46;13.20;73.20
20091;DHT22;10205;49.678;6.560;2023-02-04T01:36:13;13.20;73.30
20091;DHT22;10205;49.678;6.560;2023-02-04T01:38:46;13.20;73.30
20091;DHT22;10205;49.678;6.560;2023-02-04T01:41:13;13.20;73.20
20091;DHT22;10205;49.678;6.560;2023-02-04T01:43:41;13.20;73.40
20091;DHT22;10205;49.678;6.560;2023-02-04T01:46:08;13.20;73.40
20091;DHT22;10205;49.678;6.560;2023-02-04T01:48:36;13.20;73.40
20091;DHT22;10205;49.678;6.560;2023-02-04T01:51:09;13.20;73.40
20091;DHT22;10205;49.678;6.560;2023-02-04T01:53:40;13.20;73.50
20091;DHT22;10205;49.678;6.560;2023-02-04T01:56:14;13.20;73.20
20091;DHT22;10205;49.678;6.560;2023-02-04T01:58:46;13.20;73.30
20091;DHT22;10205;49.678;6.560;2023-02-04T02:04:02;13.20;73.40
20091;DHT22;10205;49.678;6.560;2023-02-04T02:06:30;13.20;73.50
20091;DHT22;10205;49.678;6.560;2023-02-04T02:08:58;13.20;73.50
20091;DHT22;10205;49.678;6.560;2023-02-04T02:11:26;13.20;73.50
20091;DHT22;10205;49.678;6.560;2023-02-04T02:13:54;13.20;73.50
20091;DHT22;10205;49.678;6.560;2023-02-04T02:16:21;13.20;73.60
20091;DHT22;10205;49.678;6.560;2023-02-04T02:18:49;13.20;73.50
20091;DHT22;10205;49.678;6.560;2023-02-04T02:21:25;13.20;73.60
20091;DHT22;10205;49.678;6.560;2023-02-04T02:23:59;13.20;73.70
20091;DHT22;10205;49.678;6.560;2023-02-04T02:26:43;13.20;73.70
20091;DHT22;10205;49.678;6.560;2023-02-04T02:29:10;13.10;73.40
20091;DHT22;10205;49.678;6.560;2023-02-04T02:31:37;13.10;73.40
20091;DHT22;10205;49.678;6.560;2023-02-04T02:34:04;13.10;73.30
20091;DHT22;10205;49.678;6.560;2023-02-04T02:36:31;13.10;73.40
20091;DHT22;10205;49.678;6.560;2023-02-04T02:39:00;13.10;73.60
20091;DHT22;10205;49.678;6.560;2023-02-04T02:41:27;13.10;73.50
20091;DHT22;10205;49.678;6.560;2023-02-04T02:43:57;13.10;73.60
20091;DHT22;10205;49.678;6.560;2023-02-04T02:46:24;13.10;73.70
20091;DHT22;10205;49.678;6.560;2023-02-04T02:48:51;13.10;73.80
20091;DHT22;10205;49.678;6.560;2023-02-04T02:51:18;13.10;73.70
20091;DHT22;10205;49.678;6.560;2023-02-04T02:53:46;13.10;73.60
20091;DHT22;10205;49.678;6.560;2023-02-04T02:56:17;13.10;73.70
20091;DHT22;10205;49.678;6.560;2023-02-04T02:58:48;13.10;73.60
20091;DHT22;10205;49.678;6.560;2023-02-04T03:01:16;13.10;73.80
20091;DHT22;10205;49.678;6.560;2023-02-04T03:03:45;13.10;73.80
20091;DHT22;10205;49.678;6.560;2023-02-04T03:06:18;13.10;73.80
20091;DHT22;10205;49.678;6.560;2023-02-04T03:08:50;13.10;73.80
20091;DHT22;10205;49.678;6.560;2023-02-04T03:11:22;13.10;73.80
20091;DHT22;10205;49.678;6.560;2023-02-04T03:13:51;13.10;73.80
20091;DHT22;10205;49.678;6.560;2023-02-04T03:16:19;13.10;73.80
20091;DHT22;10205;49.678;6.560;2023-02-04T03:18:46;13.10;73.80
20091;DHT22;10205;49.678;6.560;2023-02-04T03:21:14;13.10;73.80
20091;DHT22;10205;49.678;6.560;2023-02-04T03:23:41;13.00;73.80
20091;DHT22;10205;49.678;6.560;2023-02-04T03:26:08;13.00;73.90
20091;DHT22;10205;49.678;6.560;2023-02-04T03:28:40;13.00;74.00
20091;DHT22;10205;49.678;6.560;2023-02-04T03:31:08;12.90;74.10
20091;DHT22;10205;49.678;6.560;2023-02-04T03:33:35;12.90;74.00
20091;DHT22;10205;49.678;6.560;2023-02-04T03:36:02;12.90;74.10
20091;DHT22;10205;49.678;6.560;2023-02-04T03:38:30;12.90;74.10
20091;DHT22;10205;49.678;6.560;2023-02-04T03:40:58;12.90;74.10
20091;DHT22;10205;49.678;6.560;2023-02-04T03:43:25;12.90;74.10
20091;DHT22;10205;49.678;6.560;2023-02-04T03:45:54;12.90;74.10
20091;DHT22;10205;49.678;6.560;2023-02-04T03:48:20;12.90;74.20
20091;DHT22;10205;49.678;6.560;2023-02-04T03:50:48;12.90;74.20
20091;DHT22;10205;49.678;6.560;2023-02-04T03:53:15;12.90;74.20
20091;DHT22;10205;49.678;6.560;2023-02-04T03:55:42;12.90;74.20
20091;DHT22;10205;49.678;6.560;2023-02-04T03:58:09;12.90;74.20
20091;DHT22;10205;49.678;6.560;2023-02-04T04:00:36;12.80;74.10
20091;DHT22;10205;49.678;6.560;2023-02-04T04:03:04;12.80;74.10
20091;DHT22;10205;49.678;6.560;2023-02-04T04:05:31;12.80;74.10
20091;DHT22;10205;49.678;6.560;2023-02-04T04:07:58;12.80;74.10
20091;DHT22;10205;49.678;6.560;2023-02-04T04:10:26;12.80;74.20
20091;DHT22;10205;49.678;6.560;2023-02-04T04:12:54;12.80;74.20
20091;DHT22;10205;49.678;6.560;2023-02-04T04:15:22;12.80;74.20
20091;DHT22;10205;49.678;6.560;2023-02-04T04:17:49;12.80;74.30
20091;DHT22;10205;49.678;6.560;2023-02-04T04:20:17;12.80;74.30
20091;DHT22;10205;49.678;6.560;2023-02-04T04:22:44;12.80;74.40
20091;DHT22;10205;49.678;6.560;2023-02-04T04:25:11;12.70;74.40
20091;DHT22;10205;49.678;6.560;2023-02-04T04:27:39;12.70;74.40
20091;DHT22;10205;49.678;6.560;2023-02-04T04:30:06;12.70;74.40
20091;DHT22;10205;49.678;6.560;2023-02-04T04:32:34;12.70;74.50
20091;DHT22;10205;49.678;6.560;2023-02-04T04:35:01;12.70;74.50
20091;DHT22;10205;49.678;6.560;2023-02-04T04:37:30;12.70;74.60
20091;DHT22;10205;49.678;6.560;2023-02-04T04:39:59;12.70;74.60
20091;DHT22;10205;49.678;6.560;2023-02-04T04:42:27;12.70;74.60
20091;DHT22;10205;49.678;6.560;2023-02-04T04:44:54;12.70;74.50
20091;DHT22;10205;49.678;6.560;2023-02-04T04:47:21;12.60;74.50
20091;DHT22;10205;49.678;6.560;2023-02-04T04:49:48;12.60;74.50
20091;DHT22;10205;49.678;6.560;2023-02-04T04:52:15;12.60;74.50
20091;DHT22;10205;49.678;6.560;2023-02-04T04:54:43;12.60;74.50
20091;DHT22;10205;49.678;6.560;2023-02-04T04:57:11;12.50;74.20
20091;DHT22;10205;49.678;6.560;2023-02-04T04:59:38;12.50;74.30
20091;DHT22;10205;49.678;6.560;2023-02-04T05:02:05;12.40;73.90
20091;DHT22;10205;49.678;6.560;2023-02-04T05:04:32;12.40;73.80
20091;DHT22;10205;49.678;6.560;2023-02-04T05:06:59;12.40;73.80
20091;DHT22;10205;49.678;6.560;2023-02-04T05:09:26;12.30;73.80
20091;DHT22;10205;49.678;6.560;2023-02-04T05:11:54;12.30;73.60
20091;DHT22;10205;49.678;6.560;2023-02-04T05:14:22;12.20;73.70
20091;DHT22;10205;49.678;6.560;2023-02-04T05:16:49;12.20;73.90
20091;DHT22;10205;49.678;6.560;2023-02-04T05:19:19;12.20;73.50
20091;DHT22;10205;49.678;6.560;2023-02-04T05:21:46;12.20;73.20
20091;DHT22;10205;49.678;6.560;2023-02-04T05:24:13;12.20;73.50
20091;DHT22;10205;49.678;6.560;2023-02-04T05:26:40;12.10;73.50
20091;DHT22;10205;49.678;6.560;2023-02-04T05:29:09;12.10;73.40
20091;DHT22;10205;49.678;6.560;2023-02-04T05:31:36;12.10;73.60
20091;DHT22;10205;49.678;6.560;2023-02-04T05:34:03;12.10;73.90
20091;DHT22;10205;49.678;6.560;2023-02-04T05:36:30;12.10;73.50
20091;DHT22;10205;49.678;6.560;2023-02-04T05:38:57;12.10;73.80
20091;DHT22;10205;49.678;6.560;2023-02-04T05:41:24;12.10;73.70
20091;DHT22;10205;49.678;6.560;2023-02-04T05:43:51;12.00;73.60
20091;DHT22;10205;49.678;6.560;2023-02-04T05:46:20;12.10;73.60
20091;DHT22;10205;49.678;6.560;2023-02-04T05:48:47;12.10;74.00
20091;DHT22;10205;49.678;6.560;2023-02-04T05:51:14;12.10;74.20
20091;DHT22;10205;49.678;6.560;2023-02-04T05:53:41;12.10;74.20
20091;DHT22;10205;49.678;6.560;2023-02-04T05:56:08;12.10;73.80
20091;DHT22;10205;49.678;6.560;2023-02-04T05:58:35;12.10;73.40
20091;DHT22;10205;49.678;6.560;2023-02-04T06:01:03;12.10;73.50
20091;DHT22;10205;49.678;6.560;2023-02-04T06:03:31;12.10;73.80
20091;DHT22;10205;49.678;6.560;2023-02-04T06:05:58;12.10;73.80
20091;DHT22;10205;49.678;6.560;2023-02-04T06:08:25;12.10;74.00
20091;DHT22;10205;49.678;6.560;2023-02-04T06:10:52;12.10;74.20
20091;DHT22;10205;49.678;6.560;2023-02-04T06:13:20;12.10;74.40
20091;DHT22;10205;49.678;6.560;2023-02-04T06:15:47;12.10;74.50
20091;DHT22;10205;49.678;6.560;2023-02-04T06:18:14;12.10;74.40
20091;DHT22;10205;49.678;6.560;2023-02-04T06:20:42;12.20;74.40
20091;DHT22;10205;49.678;6.560;2023-02-04T06:23:09;12.20;74.50
20091;DHT22;10205;49.678;6.560;2023-02-04T06:25:37;12.20;74.30
20091;DHT22;10205;49.678;6.560;2023-02-04T06:28:04;12.20;74.40
20091;DHT22;10205;49.678;6.560;2023-02-04T06:30:31;12.20;74.40
20091;DHT22;10205;49.678;6.560;2023-02-04T06:32:58;12.20;74.60
20091;DHT22;10205;49.678;6.560;2023-02-04T06:35:25;12.20;74.40
20091;DHT22;10205;49.678;6.560;2023-02-04T06:37:53;12.20;74.40
20091;DHT22;10205;49.678;6.560;2023-02-04T06:40:20;12.20;74.70
20091;DHT22;10205;49.678;6.560;2023-02-04T06:42:47;12.20;74.80
20091;DHT22;10205;49.678;6.560;2023-02-04T06:45:15;12.20;74.80
20091;DHT22;10205;49.678;6.560;2023-02-04T06:47:42;12.20;74.90
20091;DHT22;10205;49.678;6.560;2023-02-04T06:50:09;12.30;74.80
20091;DHT22;10205;49.678;6.560;2023-02-04T06:52:36;12.30;74.70
20091;DHT22;10205;49.678;6.560;2023-02-04T06:55:05;12.30;74.70
20091;DHT22;10205;49.678;6.560;2023-02-04T06:57:32;12.30;74.40
20091;DHT22;10205;49.678;6.560;2023-02-04T06:59:59;12.30;74.10
20091;DHT22;10205;49.678;6.560;2023-02-04T07:02:26;12.30;74.30
20091;DHT22;10205;49.678;6.560;2023-02-04T07:04:53;12.30;74.20
20091;DHT22;10205;49.678;6.560;2023-02-04T07:07:20;12.20;74.00
20091;DHT22;10205;49.678;6.560;2023-02-04T07:09:47;12.30;74.30
20091;DHT22;10205;49.678;6.560;2023-02-04T07:12:16;12.20;74.30
20091;DHT22;10205;49.678;6.560;2023-02-04T07:14:43;12.20;74.40
20091;DHT22;10205;49.678;6.560;2023-02-04T07:17:10;12.20;74.40
20091;DHT22;10205;49.678;6.560;2023-02-04T07:19:37;12.20;74.40
20091;DHT22;10205;49.678;6.560;2023-02-04T07:22:07;12.20;74.40
20091;DHT22;10205;49.678;6.560;2023-02-04T07:24:34;12.20;75.30
20091;DHT22;10205;49.678;6.560;2023-02-04T07:27:01;12.20;74.40
20091;DHT22;10205;49.678;6.560;2023-02-04T07:29:30;12.20;74.40
20091;DHT22;10205;49.678;6.560;2023-02-04T07:31:57;12.20;74.40
20091;DHT22;10205;49.678;6.560;2023-02-04T07:34:24;12.20;74.30
20091;DHT22;10205;49.678;6.560;2023-02-04T07:36:53;12.20;74.30
20091;DHT22;10205;49.678;6.560;2023-02-04T07:39:20;12.20;74.20
20091;DHT22;10205;49.678;6.560;2023-02-04T07:41:47;12.20;74.20
20091;DHT22;10205;49.678;6.560;2023-02-04T07:44:14;12.10;74.20
20091;DHT22;10205;49.678;6.560;2023-02-04T07:46:43;12.10;74.00
20091;DHT22;10205;49.678;6.560;2023-02-04T07:49:10;12.10;73.60
20091;DHT22;10205;49.678;6.560;2023-02-04T07:51:37;12.10;73.40
20091;DHT22;10205;49.678;6.560;2023-02-04T07:54:04;12.10;72.90
20091;DHT22;10205;49.678;6.560;2023-02-04T07:56:34;12.00;73.00
20091;DHT22;10205;49.678;6.560;2023-02-04T07:59:02;12.00;73.00
20091;DHT22;10205;49.678;6.560;2023-02-04T08:01:29;12.00;73.30
20091;DHT22;10205;49.678;6.560;2023-02-04T08:03:59;12.00;73.70
20091;DHT22;10205;49.678;6.560;2023-02-04T08:06:26;12.00;73.60
20091;DHT22;10205;49.678;6.560;2023-02-04T08:08:56;11.90;73.60
20091;DHT22;10205;49.678;6.560;2023-02-04T08:11:23;11.90;73.80
20091;DHT22;10205;49.678;6.560;2023-02-04T08:13:51;11.90;74.00
20091;DHT22;10205;49.678;6.560;2023-02-04T08:16:18;11.90;74.10
20091;DHT22;10205;49.678;6.560;2023-02-04T08:18:45;11.90;73.90
20091;DHT22;10205;49.678;6.560;2023-02-04T08:21:14;11.90;73.70
20091;DHT22;10205;49.678;6.560;2023-02-04T08:23:41;11.80;73.20
20091;DHT22;10205;49.678;6.560;2023-02-04T08:26:08;11.80;73.40
20091;DHT22;10205;49.678;6.560;2023-02-04T08:28:36;11.80;73.60
20091;DHT22;10205;49.678;6.560;2023-02-04T08:31:04;11.80;73.70
20091;DHT22;10205;49.678;6.560;2023-02-04T08:33:31;11.80;73.90
20091;DHT22;10205;49.678;6.560;2023-02-04T08:35:58;11.80;74.00
20091;DHT22;10205;49.678;6.560;2023-02-04T08:38:26;11.80;74.00
20091;DHT22;10205;49.678;6.560;2023-02-04T08:40:54;11.70;74.10
20091;DHT22;10205;49.678;6.560;2023-02-04T08:43:21;11.70;74.30
20091;DHT22;10205;49.678;6.560;2023-02-04T08:45:48;11.70;74.40
20091;DHT22;10205;49.678;6.560;2023-02-04T08:48:15;11.70;74.40
20091;DHT22;10205;49.678;6.560;2023-02-04T08:50:43;11.70;74.40
20091;DHT22;10205;49.678;6.560;2023-02-04T08:53:10;11.70;74.10
20091;DHT22;10205;49.678;6.560;2023-02-04T08:55:38;11.70;73.60
20091;DHT22;10205;49.678;6.560;2023-02-04T08:58:05;11.70;73.60
20091;DHT22;10205;49.678;6.560;2023-02-04T09:00:33;11.70;73.60
20091;DHT22;10205;49.678;6.560;2023-02-04T09:03:00;11.70;73.70
20091;DHT22;10205;49.678;6.560;2023-02-04T09:05:27;11.70;73.40
20091;DHT22;10205;49.678;6.560;2023-02-04T09:07:54;11.60;73.20
20091;DHT22;10205;49.678;6.560;2023-02-04T09:10:21;11.60;73.20
20091;DHT22;10205;49.678;6.560;2023-02-04T09:12:50;11.60;73.10
20091;DHT22;10205;49.678;6.560;2023-02-04T09:15:21;11.60;73.20
20091;DHT22;10205;49.678;6.560;2023-02-04T09:17:49;11.60;72.80
20091;DHT22;10205;49.678;6.560;2023-02-04T09:20:18;11.60;73.10
20091;DHT22;10205;49.678;6.560;2023-02-04T09:22:46;11.60;72.90
20091;DHT22;10205;49.678;6.560;2023-02-04T09:25:14;11.60;73.00
20091;DHT22;10205;49.678;6.560;2023-02-04T09:27:42;11.60;73.40
20091;DHT22;10205;49.678;6.560;2023-02-04T09:30:11;11.60;74.20
20091;DHT22;10205;49.678;6.560;2023-02-04T09:32:39;11.60;73.30
20091;DHT22;10205;49.678;6.560;2023-02-04T09:35:07;11.70;73.20
20091;DHT22;10205;49.678;6.560;2023-02-04T09:37:34;11.70;73.10
20091;DHT22;10205;49.678;6.560;2023-02-04T09:40:01;11.70;73.40
20091;DHT22;10205;49.678;6.560;2023-02-04T09:42:28;11.70;71.10
20091;DHT22;10205;49.678;6.560;2023-02-04T09:44:56;11.70;71.50
20091;DHT22;10205;49.678;6.560;2023-02-04T09:47:26;11.80;71.30
20091;DHT22;10205;49.678;6.560;2023-02-04T09:49:53;11.80;70.60
20091;DHT22;10205;49.678;6.560;2023-02-04T09:52:21;11.90;70.40
20091;DHT22;10205;49.678;6.560;2023-02-04T09:54:49;11.90;70.30
20091;DHT22;10205;49.678;6.560;2023-02-04T09:57:19;11.90;70.50
20091;DHT22;10205;49.678;6.560;2023-02-04T09:59:47;11.90;71.20
20091;DHT22;10205;49.678;6.560;2023-02-04T10:02:21;12.00;71.30
20091;DHT22;10205;49.678;6.560;2023-02-04T10:04:54;12.00;71.00
20091;DHT22;10205;49.678;6.560;2023-02-04T10:07:23;12.00;70.00
20091;DHT22;10205;49.678;6.560;2023-02-04T10:09:52;12.10;68.80
20091;DHT22;10205;49.678;6.560;2023-02-04T10:12:20;12.10;68.70
20091;DHT22;10205;49.678;6.560;2023-02-04T10:14:48;12.20;69.00
20091;DHT22;10205;49.678;6.560;2023-02-04T10:17:20;12.20;69.70
20091;DHT22;10205;49.678;6.560;2023-02-04T10:19:48;12.30;70.20
20091;DHT22;10205;49.678;6.560;2023-02-04T10:22:19;12.30;69.70
20091;DHT22;10205;49.678;6.560;2023-02-04T10:24:48;12.40;69.90
20091;DHT22;10205;49.678;6.560;2023-02-04T10:27:15;12.40;68.80
20091;DHT22;10205;49.678;6.560;2023-02-04T10:29:42;12.50;69.80
20091;DHT22;10205;49.678;6.560;2023-02-04T10:32:28;12.50;70.60
20091;DHT22;10205;49.678;6.560;2023-02-04T10:35:01;12.60;69.20
20091;DHT22;10205;49.678;6.560;2023-02-04T10:37:30;12.60;68.40
20091;DHT22;10205;49.678;6.560;2023-02-04T10:39:57;12.60;68.10
20091;DHT22;10205;49.678;6.560;2023-02-04T10:42:26;12.70;68.30
20091;DHT22;10205;49.678;6.560;2023-02-04T10:44:55;12.70;66.80
20091;DHT22;10205;49.678;6.560;2023-02-04T10:47:23;12.80;67.90
20091;DHT22;10205;49.678;6.560;2023-02-04T10:49:53;12.80;68.30
20091;DHT22;10205;49.678;6.560;2023-02-04T10:52:25;12.80;67.60
20091;DHT22;10205;49.678;6.560;2023-02-04T10:55:01;12.80;67.40
20091;DHT22;10205;49.678;6.560;2023-02-04T10:57:29;12.90;65.40
20091;DHT22;10205;49.678;6.560;2023-02-04T10:59:59;12.90;66.80
20091;DHT22;10205;49.678;6.560;2023-02-04T11:02:36;12.90;67.10
20091;DHT22;10205;49.678;6.560;2023-02-04T11:05:12;12.90;66.50
20091;DHT22;10205;49.678;6.560;2023-02-04T11:07:42;12.90;66.90
20091;DHT22;10205;49.678;6.560;2023-02-04T11:10:13;13.00;66.60
20091;DHT22;10205;49.678;6.560;2023-02-04T11:12:46;13.00;66.70
20091;DHT22;10205;49.678;6.560;2023-02-04T11:15:43;13.00;66.50
20091;DHT22;10205;49.678;6.560;2023-02-04T11:18:24;13.00;64.80
20091;DHT22;10205;49.678;6.560;2023-02-04T11:20:57;13.10;66.50
20091;DHT22;10205;49.678;6.560;2023-02-04T11:23:35;13.10;67.20
20091;DHT22;10205;49.678;6.560;2023-02-04T11:26:08;13.10;66.10
20091;DHT22;10205;49.678;6.560;2023-02-04T11:29:06;13.10;66.00
20091;DHT22;10205;49.678;6.560;2023-02-04T11:31:43;13.10;65.20
20091;DHT22;10205;49.678;6.560;2023-02-04T11:34:29;13.20;64.70
20091;DHT22;10205;49.678;6.560;2023-02-04T11:37:16;13.20;65.30
20091;DHT22;10205;49.678;6.560;2023-02-04T11:39:58;13.20;64.70
20091;DHT22;10205;49.678;6.560;2023-02-04T11:42:31;13.20;64.50
20091;DHT22;10205;49.678;6.560;2023-02-04T11:45:12;13.20;65.10
20091;DHT22;10205;49.678;6.560;2023-02-04T11:47:42;13.20;64.90
20091;DHT22;10205;49.678;6.560;2023-02-04T11:50:13;13.20;65.00
20091;DHT22;10205;49.678;6.560;2023-02-04T11:52:45;13.30;65.00
20091;DHT22;10205;49.678;6.560;2023-02-04T11:55:14;13.30;64.60
20091;DHT22;10205;49.678;6.560;2023-02-04T11:57:42;13.30;64.80
20091;DHT22;10205;49.678;6.560;2023-02-04T12:00:14;13.30;64.00
20091;DHT22;10205;49.678;6.560;2023-02-04T12:02:45;13.30;63.10
20091;DHT22;10205;49.678;6.560;2023-02-04T12:05:15;13.30;62.60
20091;DHT22;10205;49.678;6.560;2023-02-04T12:07:44;13.30;63.00
20091;DHT22;10205;49.678;6.560;2023-02-04T12:10:23;13.30;64.40
20091;DHT22;10205;49.678;6.560;2023-02-04T12:12:53;13.30;64.20
20091;DHT22;10205;49.678;6.560;2023-02-04T12:15:24;13.30;64.50
20091;DHT22;10205;49.678;6.560;2023-02-04T12:18:01;13.40;64.40
20091;DHT22;10205;49.678;6.560;2023-02-04T12:20:29;13.40;64.20
20091;DHT22;10205;49.678;6.560;2023-02-04T12:22:58;13.40;64.20
20091;DHT22;10205;49.678;6.560;2023-02-04T12:25:27;13.40;63.40
20091;DHT22;10205;49.678;6.560;2023-02-04T12:27:54;13.40;63.40
20091;DHT22;10205;49.678;6.560;2023-02-04T12:30:24;13.40;64.00
20091;DHT22;10205;49.678;6.560;2023-02-04T12:32:52;13.50;63.70
20091;DHT22;10205;49.678;6.560;2023-02-04T12:35:19;13.50;63.00
20091;DHT22;10205;49.678;6.560;2023-02-04T12:37:46;13.50;63.30
20091;DHT22;10205;49.678;6.560;2023-02-04T12:40:14;13.50;62.60
20091;DHT22;10205;49.678;6.560;2023-02-04T12:42:45;13.50;60.10
20091;DHT22;10205;49.678;6.560;2023-02-04T12:45:13;13.60;62.50
20091;DHT22;10205;49.678;6.560;2023-02-04T12:47:42;13.50;62.60
20091;DHT22;10205;49.678;6.560;2023-02-04T12:50:12;13.60;63.20
20091;DHT22;10205;49.678;6.560;2023-02-04T12:52:47;13.60;62.90
20091;DHT22;10205;49.678;6.560;2023-02-04T12:55:18;13.60;62.50
20091;DHT22;10205;49.678;6.560;2023-02-04T12:57:46;13.60;62.50
20091;DHT22;10205;49.678;6.560;2023-02-04T13:00:15;13.70;62.00
20091;DHT22;10205;49.678;6.560;2023-02-04T13:02:44;13.70;62.20
20091;DHT22;10205;49.678;6.560;2023-02-04T13:05:12;13.70;62.00
20091;DHT22;10205;49.678;6.560;2023-02-04T13:07:41;13.70;61.70
20091;DHT22;10205;49.678;6.560;2023-02-04T13:10:10;13.60;61.40
20091;DHT22;10205;49.678;6.560;2023-02-04T13:12:38;13.60;61.60
20091;DHT22;10205;49.678;6.560;2023-02-04T13:15:09;13.60;61.10
20091;DHT22;10205;49.678;6.560;2023-02-04T13:17:36;13.60;61.40
20091;DHT22;10205;49.678;6.560;2023-02-04T13:20:04;13.60;62.00
20091;DHT22;10205;49.678;6.560;2023-02-04T13:22:32;13.60;61.60
20091;DHT22;10205;49.678;6.560;2023-02-04T13:24:59;13.60;61.60
20091;DHT22;10205;49.678;6.560;2023-02-04T13:27:26;13.60;61.10
20091;DHT22;10205;49.678;6.560;2023-02-04T13:29:54;13.60;61.10
20091;DHT22;10205;49.678;6.560;2023-02-04T13:32:22;13.70;59.60
20091;DHT22;10205;49.678;6.560;2023-02-04T13:34:50;13.60;61.30
20091;DHT22;10205;49.678;6.560;2023-02-04T13:37:16;13.70;60.60
20091;DHT22;10205;49.678;6.560;2023-02-04T13:39:44;13.60;59.30
20091;DHT22;10205;49.678;6.560;2023-02-04T13:42:11;13.70;60.20
20091;DHT22;10205;49.678;6.560;2023-02-04T13:44:38;13.70;59.80
20091;DHT22;10205;49.678;6.560;2023-02-04T13:47:05;13.70;59.30
20091;DHT22;10205;49.678;6.560;2023-02-04T13:49:33;13.60;60.10
20091;DHT22;10205;49.678;6.560;2023-02-04T13:52:01;13.70;61.10
20091;DHT22;10205;49.678;6.560;2023-02-04T13:54:28;13.70;60.50
20091;DHT22;10205;49.678;6.560;2023-02-04T13:56:55;13.70;59.70
20091;DHT22;10205;49.678;6.560;2023-02-04T13:59:22;13.70;59.40
20091;DHT22;10205;49.678;6.560;2023-02-04T14:01:49;13.70;59.20
20091;DHT22;10205;49.678;6.560;2023-02-04T14:04:17;13.70;59.60
20091;DHT22;10205;49.678;6.560;2023-02-04T14:06:46;13.70;59.30
20091;DHT22;10205;49.678;6.560;2023-02-04T14:09:13;13.70;59.90
20091;DHT22;10205;49.678;6.560;2023-02-04T14:11:40;13.70;59.40
20091;DHT22;10205;49.678;6.560;2023-02-04T14:14:07;13.70;60.10
20091;DHT22;10205;49.678;6.560;2023-02-04T14:16:34;13.80;60.00
20091;DHT22;10205;49.678;6.560;2023-02-04T14:19:02;13.80;59.90
20091;DHT22;10205;49.678;6.560;2023-02-04T14:21:29;13.80;60.00
20091;DHT22;10205;49.678;6.560;2023-02-04T14:24:00;13.80;60.80
20091;DHT22;10205;49.678;6.560;2023-02-04T14:26:27;13.90;59.60
20091;DHT22;10205;49.678;6.560;2023-02-04T14:28:54;13.90;59.60
20091;DHT22;10205;49.678;6.560;2023-02-04T14:31:21;14.00;59.80
20091;DHT22;10205;49.678;6.560;2023-02-04T14:33:48;14.00;60.80
20091;DHT22;10205;49.678;6.560;2023-02-04T14:36:15;14.00;60.90
20091;DHT22;10205;49.678;6.560;2023-02-04T14:38:43;14.00;60.50
20091;DHT22;10205;49.678;6.560;2023-02-04T14:41:11;14.10;62.10
20091;DHT22;10205;49.678;6.560;2023-02-04T14:43:41;14.10;61.90
20091;DHT22;10205;49.678;6.560;2023-02-04T14:46:09;14.20;61.20
20091;DHT22;10205;49.678;6.560;2023-02-04T14:48:36;14.20;60.60
20091;DHT22;10205;49.678;6.560;2023-02-04T14:51:04;14.20;59.90
20091;DHT22;10205;49.678;6.560;2023-02-04T14:53:33;14.30;60.20
20091;DHT22;10205;49.678;6.560;2023-02-04T14:56:00;14.30;61.00
20091;DHT22;10205;49.678;6.560;2023-02-04T14:58:33;14.30;61.40
20091;DHT22;10205;49.678;6.560;2023-02-04T15:01:00;14.30;59.80
20091;DHT22;10205;49.678;6.560;2023-02-04T15:03:27;14.40;60.20
20091;DHT22;10205;49.678;6.560;2023-02-04T15:05:54;14.40;59.80
20091;DHT22;10205;49.678;6.560;2023-02-04T15:08:21;14.40;60.50
20091;DHT22;10205;49.678;6.560;2023-02-04T15:10:49;14.40;59.90
20091;DHT22;10205;49.678;6.560;2023-02-04T15:13:16;14.40;59.80
20091;DHT22;10205;49.678;6.560;2023-02-04T15:15:44;14.40;59.60
20091;DHT22;10205;49.678;6.560;2023-02-04T15:18:12;14.40;59.90
20091;DHT22;10205;49.678;6.560;2023-02-04T15:20:39;14.40;60.30
20091;DHT22;10205;49.678;6.560;2023-02-04T15:23:06;14.40;60.70
20091;DHT22;10205;49.678;6.560;2023-02-04T15:25:37;14.50;61.20
20091;DHT22;10205;49.678;6.560;2023-02-04T15:28:05;14.40;61.20
20091;DHT22;10205;49.678;6.560;2023-02-04T15:30:32;14.50;61.20
20091;DHT22;10205;49.678;6.560;2023-02-04T15:33:00;14.50;60.80
20091;DHT22;10205;49.678;6.560;2023-02-04T15:35:28;14.50;59.70
20091;DHT22;10205;49.678;6.560;2023-02-04T15:37:56;14.50;61.10
20091;DHT22;10205;49.678;6.560;2023-02-04T15:40:26;14.50;59.90